sensor_id;sensor_type;location;lat;lon;timestamp;P1;durP1;ratioP1;P2;durP2;ratioP2
19285;SDS011;9776;50.798;6.430;2024-02-14T00:00:09;1.00;;;0.90;;
19285;SDS011;9776;50.798;6.430;2024-02-14T00:02:38;1.38;;;0.70;;
19285;SDS011;9776;50.798;6.430;2024-02-14T00:05:06;1.80;;;0.80;;
19285;SDS011;9776;50.798;6.430;2024-02-14T00:07:35;2.03;;;0.57;;
19285;SDS011;9776;50.798;6.430;2024-02-14T00:10:02;1.13;;;0.60;;
19285;SDS011;9776;50.798;6.430;2024-02-14T00:12:31;1.23;;;0.75;;
19285;SDS011;9776;50.798;6.430;2024-02-14T00:14:58;0.82;;;0.60;;
19285;SDS011;9776;50.798;6.430;2024-02-14T00:17:26;1.80;;;0.60;;
19285;SDS011;9776;50.798;6.430;2024-02-14T00:19:53;2.15;;;0.75;;
19285;SDS011;9776;50.798;6.430;2024-02-14T00:22:20;1.85;;;0.60;;
19285;SDS011;9776;50.798;6.430;2024-02-14T00:24:48;1.65;;;0.80;;
19285;SDS011;9776;50.798;6.430;2024-02-14T00:27:15;1.63;;;0.93;;
19285;SDS011;9776;50.798;6.430;2024-02-14T00:29:42;0.60;;;0.57;;
19285;SDS011;9776;50.798;6.430;2024-02-14T00:32:12;2.20;;;0.65;;
19285;SDS011;9776;50.798;6.430;2024-02-14T00:34:40;1.27;;;0.70;;
19285;SDS011;9776;50.798;6.430;2024-02-14T00:37:08;1.35;;;0.70;;
19285;SDS011;9776;50.798;6.430;2024-02-14T00:39:36;1.67;;;0.77;;
19285;SDS011;9776;50.798;6.430;2024-02-14T00:42:03;0.80;;;0.60;;
19285;SDS011;9776;50.798;6.430;2024-02-14T00:44:30;1.10;;;0.60;;
19285;SDS011;9776;50.798;6.430;2024-02-14T00:46:57;0.55;;;0.40;;
19285;SDS011;9776;50.798;6.430;2024-02-14T00:49:26;0.98;;;0.80;;
19285;SDS011;9776;50.798;6.430;2024-02-14T00:51:54;0.73;;;0.65;;
19285;SDS011;9776;50.798;6.430;2024-02-14T00:54:22;1.05;;;0.63;;
19285;SDS011;9776;50.798;6.430;2024-02-14T00:56:48;1.60;;;0.90;;
19285;SDS011;9776;50.798;6.430;2024-02-14T00:59:18;5.05;;;2.30;;
19285;SDS011;9776;50.798;6.430;2024-02-14T01:01:45;2.67;;;1.40;;
19285;SDS011;9776;50.798;6.430;2024-02-14T01:04:12;1.45;;;0.82;;
19285;SDS011;9776;50.798;6.430;2024-02-14T01:06:39;3.78;;;1.23;;
19285;SDS011;9776;50.798;6.430;2024-02-14T01:09:07;2.42;;;1.38;;
19285;SDS011;9776;50.798;6.430;2024-02-14T01:11:35;1.63;;;1.00;;
19285;SDS011;9776;50.798;6.430;2024-02-14T01:14:04;0.98;;;0.70;;
19285;SDS011;9776;50.798;6.430;2024-02-14T01:16:31;1.10;;;0.75;;
19285;SDS011;9776;50.798;6.430;2024-02-14T01:18:58;0.68;;;0.50;;
19285;SDS011;9776;50.798;6.430;2024-02-14T01:21:25;1.20;;;0.70;;
19285;SDS011;9776;50.798;6.430;2024-02-14T01:23:52;0.68;;;0.60;;
19285;SDS011;9776;50.798;6.430;2024-02-14T01:26:22;1.50;;;0.80;;
19285;SDS011;9776;50.798;6.430;2024-02-14T01:28:49;1.42;;;0.60;;
19285;SDS011;9776;50.798;6.430;2024-02-14T01:31:15;0.60;;;0.60;;
19285;SDS011;9776;50.798;6.430;2024-02-14T01:33:42;0.60;;;0.50;;
19285;SDS011;9776;50.798;6.430;2024-02-14T01:36:11;0.80;;;0.70;;
19285;SDS011;9776;50.798;6.430;2024-02-14T01:38:38;1.25;;;0.70;;
19285;SDS011;9776;50.798;6.430;2024-02-14T01:41:05;0.98;;;0.70;;
19285;SDS011;9776;50.798;6.430;2024-02-14T01:43:34;1.23;;;0.70;;
19285;SDS011;9776;50.798;6.430;2024-02-14T01:46:04;0.50;;;0.50;;
19285;SDS011;9776;50.798;6.430;2024-02-14T01:48:33;0.73;;;0.60;;
19285;SDS011;9776;50.798;6.430;2024-02-14T01:51:00;1.40;;;0.60;;
19285;SDS011;9776;50.798;6.430;2024-02-14T01:53:30;0.50;;;0.40;;
19285;SDS011;9776;50.798;6.430;2024-02-14T01:55:57;0.52;;;0.50;;
19285;SDS011;9776;50.798;6.430;2024-02-14T01:58:25;0.60;;;0.50;;
19285;SDS011;9776;50.798;6.430;2024-02-14T02:00:54;0.68;;;0.60;;
19285;SDS011;9776;50.798;6.430;2024-02-14T02:03:23;0.60;;;0.55;;
19285;SDS011;9776;50.798;6.430;2024-02-14T02:05:51;0.85;;;0.57;;
19285;SDS011;9776;50.798;6.430;2024-02-14T02:08:19;1.30;;;0.70;;
19285;SDS011;9776;50.798;6.430;2024-02-14T02:10:46;0.88;;;0.60;;
19285;SDS011;9776;50.798;6.430;2024-02-14T02:13:13;0.73;;;0.50;;
19285;SDS011;9776;50.798;6.430;2024-02-14T02:15:40;0.85;;;0.50;;
19285;SDS011;9776;50.798;6.430;2024-02-14T02:18:11;1.25;;;0.57;;
19285;SDS011;9776;50.798;6.430;2024-02-14T02:20:38;0.98;;;0.60;;
19285;SDS011;9776;50.798;6.430;2024-02-14T02:23:09;0.82;;;0.60;;
19285;SDS011;9776;50.798;6.430;2024-02-14T02:25:39;0.65;;;0.65;;
19285;SDS011;9776;50.798;6.430;2024-02-14T02:28:06;1.33;;;0.60;;
19285;SDS011;9776;50.798;6.430;2024-02-14T02:30:34;0.88;;;0.60;;
19285;SDS011;9776;50.798;6.430;2024-02-14T02:33:01;0.88;;;0.80;;
19285;SDS011;9776;50.798;6.430;2024-02-14T02:35:29;1.10;;;0.50;;
19285;SDS011;9776;50.798;6.430;2024-02-14T02:37:56;0.70;;;0.60;;
19285;SDS011;9776;50.798;6.430;2024-02-14T02:40:25;0.82;;;0.73;;
19285;SDS011;9776;50.798;6.430;2024-02-14T02:42:52;1.10;;;0.70;;
19285;SDS011;9776;50.798;6.430;2024-02-14T02:45:19;1.17;;;0.90;;
19285;SDS011;9776;50.798;6.430;2024-02-14T02:47:46;0.93;;;0.80;;
19285;SDS011;9776;50.798;6.430;2024-02-14T02:50:16;1.38;;;0.80;;
19285;SDS011;9776;50.798;6.430;2024-02-14T02:52:44;0.82;;;0.75;;
19285;SDS011;9776;50.798;6.430;2024-02-14T02:55:11;0.95;;;0.82;;
19285;SDS011;9776;50.798;6.430;2024-02-14T02:57:41;1.20;;;0.77;;
19285;SDS011;9776;50.798;6.430;2024-02-14T03:00:09;1.20;;;0.90;;
19285;SDS011;9776;50.798;6.430;2024-02-14T03:02:39;1.00;;;0.70;;
19285;SDS011;9776;50.798;6.430;2024-02-14T03:05:09;1.25;;;0.90;;
19285;SDS011;9776;50.798;6.430;2024-02-14T03:07:43;1.55;;;0.90;;
19285;SDS011;9776;50.798;6.430;2024-02-14T03:10:11;1.83;;;1.10;;
19285;SDS011;9776;50.798;6.430;2024-02-14T03:12:38;1.48;;;1.10;;
19285;SDS011;9776;50.798;6.430;2024-02-14T03:15:07;0.93;;;0.80;;
19285;SDS011;9776;50.798;6.430;2024-02-14T03:17:36;1.65;;;1.13;;
19285;SDS011;9776;50.798;6.430;2024-02-14T03:20:03;2.33;;;1.02;;
19285;SDS011;9776;50.798;6.430;2024-02-14T03:22:35;1.10;;;0.90;;
19285;SDS011;9776;50.798;6.430;2024-02-14T03:25:02;1.58;;;1.10;;
19285;SDS011;9776;50.798;6.430;2024-02-14T03:27:29;1.40;;;1.00;;
19285;SDS011;9776;50.798;6.430;2024-02-14T03:29:57;2.28;;;0.90;;
19285;SDS011;9776;50.798;6.430;2024-02-14T03:32:27;1.50;;;0.90;;
19285;SDS011;9776;50.798;6.430;2024-02-14T03:34:54;2.25;;;1.23;;
19285;SDS011;9776;50.798;6.430;2024-02-14T03:37:21;1.67;;;1.15;;
19285;SDS011;9776;50.798;6.430;2024-02-14T03:39:50;1.15;;;0.70;;
19285;SDS011;9776;50.798;6.430;2024-02-14T03:42:17;1.45;;;0.98;;
19285;SDS011;9776;50.798;6.430;2024-02-14T03:44:45;1.33;;;0.70;;
19285;SDS011;9776;50.798;6.430;2024-02-14T03:47:12;1.58;;;0.90;;
19285;SDS011;9776;50.798;6.430;2024-02-14T03:49:41;1.58;;;0.90;;
19285;SDS011;9776;50.798;6.430;2024-02-14T03:52:08;4.93;;;1.10;;
19285;SDS011;9776;50.798;6.430;2024-02-14T03:54:36;1.98;;;1.00;;
19285;SDS011;9776;50.798;6.430;2024-02-14T03:57:03;1.00;;;0.80;;
19285;SDS011;9776;50.798;6.430;2024-02-14T03:59:35;1.73;;;0.80;;
19285;SDS011;9776;50.798;6.430;2024-02-14T04:02:04;1.63;;;1.00;;
19285;SDS011;9776;50.798;6.430;2024-02-14T04:04:36;2.13;;;0.90;;
19285;SDS011;9776;50.798;6.430;2024-02-14T04:07:05;1.20;;;0.80;;
19285;SDS011;9776;50.798;6.430;2024-02-14T04:09:33;1.60;;;0.80;;
19285;SDS011;9776;50.798;6.430;2024-02-14T04:12:00;0.95;;;0.70;;
19285;SDS011;9776;50.798;6.430;2024-02-14T04:14:27;1.65;;;0.60;;
19285;SDS011;9776;50.798;6.430;2024-02-14T04:16:54;2.72;;;0.70;;
19285;SDS011;9776;50.798;6.430;2024-02-14T04:19:21;1.02;;;0.70;;
19285;SDS011;9776;50.798;6.430;2024-02-14T04:21:48;1.23;;;0.60;;
19285;SDS011;9776;50.798;6.430;2024-02-14T04:24:17;2.80;;;0.82;;
19285;SDS011;9776;50.798;6.430;2024-02-14T04:26:43;0.70;;;0.63;;
19285;SDS011;9776;50.798;6.430;2024-02-14T04:29:11;1.23;;;0.60;;
19285;SDS011;9776;50.798;6.430;2024-02-14T04:31:38;1.15;;;0.80;;
19285;SDS011;9776;50.798;6.430;2024-02-14T04:34:05;2.08;;;0.70;;
19285;SDS011;9776;50.798;6.430;2024-02-14T04:36:33;2.53;;;0.90;;
19285;SDS011;9776;50.798;6.430;2024-02-14T04:39:01;1.42;;;0.70;;
19285;SDS011;9776;50.798;6.430;2024-02-14T04:41:30;2.78;;;0.90;;
19285;SDS011;9776;50.798;6.430;2024-02-14T04:43:57;2.63;;;0.98;;
19285;SDS011;9776;50.798;6.430;2024-02-14T04:46:24;2.60;;;0.90;;
19285;SDS011;9776;50.798;6.430;2024-02-14T04:48:50;1.55;;;0.68;;
19285;SDS011;9776;50.798;6.430;2024-02-14T04:51:18;1.20;;;0.77;;
19285;SDS011;9776;50.798;6.430;2024-02-14T04:53:45;0.95;;;0.77;;
19285;SDS011;9776;50.798;6.430;2024-02-14T04:56:12;1.25;;;0.95;;
19285;SDS011;9776;50.798;6.430;2024-02-14T04:58:40;0.95;;;0.80;;
19285;SDS011;9776;50.798;6.430;2024-02-14T05:01:07;2.10;;;0.80;;
19285;SDS011;9776;50.798;6.430;2024-02-14T05:03:34;1.38;;;0.70;;
19285;SDS011;9776;50.798;6.430;2024-02-14T05:06:01;1.38;;;0.85;;
19285;SDS011;9776;50.798;6.430;2024-02-14T05:08:30;2.33;;;1.17;;
19285;SDS011;9776;50.798;6.430;2024-02-14T05:10:57;1.48;;;0.82;;
19285;SDS011;9776;50.798;6.430;2024-02-14T05:13:25;1.98;;;0.68;;
19285;SDS011;9776;50.798;6.430;2024-02-14T05:15:54;1.30;;;0.75;;
19285;SDS011;9776;50.798;6.430;2024-02-14T05:18:21;1.55;;;0.70;;
19285;SDS011;9776;50.798;6.430;2024-02-14T05:20:48;1.25;;;0.80;;
19285;SDS011;9776;50.798;6.430;2024-02-14T05:23:16;2.20;;;1.13;;
19285;SDS011;9776;50.798;6.430;2024-02-14T05:25:43;1.00;;;0.80;;
19285;SDS011;9776;50.798;6.430;2024-02-14T05:28:10;0.90;;;0.70;;
19285;SDS011;9776;50.798;6.430;2024-02-14T05:30:39;2.05;;;0.80;;
19285;SDS011;9776;50.798;6.430;2024-02-14T05:33:07;1.98;;;0.70;;
19285;SDS011;9776;50.798;6.430;2024-02-14T05:35:36;1.17;;;0.77;;
19285;SDS011;9776;50.798;6.430;2024-02-14T05:38:03;2.35;;;0.70;;
19285;SDS011;9776;50.798;6.430;2024-02-14T05:40:32;0.93;;;0.65;;
19285;SDS011;9776;50.798;6.430;2024-02-14T05:43:03;1.90;;;1.30;;
19285;SDS011;9776;50.798;6.430;2024-02-14T05:45:32;8.38;;;2.85;;
19285;SDS011;9776;50.798;6.430;2024-02-14T05:47:59;14.50;;;4.22;;
19285;SDS011;9776;50.798;6.430;2024-02-14T05:50:27;8.18;;;3.55;;
19285;SDS011;9776;50.798;6.430;2024-02-14T05:52:54;7.18;;;3.33;;
19285;SDS011;9776;50.798;6.430;2024-02-14T05:55:22;2.83;;;1.80;;
19285;SDS011;9776;50.798;6.430;2024-02-14T05:57:49;12.25;;;5.72;;
19285;SDS011;9776;50.798;6.430;2024-02-14T06:00:17;15.95;;;6.28;;
19285;SDS011;9776;50.798;6.430;2024-02-14T06:02:45;2.35;;;1.63;;
19285;SDS011;9776;50.798;6.430;2024-02-14T06:05:12;5.97;;;2.80;;
19285;SDS011;9776;50.798;6.430;2024-02-14T06:07:41;3.70;;;2.05;;
19285;SDS011;9776;50.798;6.430;2024-02-14T06:10:10;1.85;;;1.20;;
19285;SDS011;9776;50.798;6.430;2024-02-14T06:12:37;3.08;;;1.10;;
19285;SDS011;9776;50.798;6.430;2024-02-14T06:15:06;1.77;;;1.50;;
19285;SDS011;9776;50.798;6.430;2024-02-14T06:17:34;3.17;;;1.70;;
19285;SDS011;9776;50.798;6.430;2024-02-14T06:20:01;2.13;;;1.65;;
19285;SDS011;9776;50.798;6.430;2024-02-14T06:22:32;2.17;;;1.27;;
19285;SDS011;9776;50.798;6.430;2024-02-14T06:25:01;1.10;;;0.90;;
19285;SDS011;9776;50.798;6.430;2024-02-14T06:27:29;1.38;;;1.00;;
19285;SDS011;9776;50.798;6.430;2024-02-14T06:29:57;2.40;;;1.63;;
19285;SDS011;9776;50.798;6.430;2024-02-14T06:32:24;4.03;;;1.63;;
19285;SDS011;9776;50.798;6.430;2024-02-14T06:34:51;2.33;;;1.95;;
19285;SDS011;9776;50.798;6.430;2024-02-14T06:37:19;1.33;;;1.00;;
19285;SDS011;9776;50.798;6.430;2024-02-14T06:39:46;2.95;;;1.60;;
19285;SDS011;9776;50.798;6.430;2024-02-14T06:42:15;3.80;;;1.60;;
19285;SDS011;9776;50.798;6.430;2024-02-14T06:44:42;1.77;;;1.00;;
19285;SDS011;9776;50.798;6.430;2024-02-14T06:47:09;1.42;;;1.00;;
19285;SDS011;9776;50.798;6.430;2024-02-14T06:49:38;2.08;;;1.00;;
19285;SDS011;9776;50.798;6.430;2024-02-14T06:52:05;1.90;;;1.13;;
19285;SDS011;9776;50.798;6.430;2024-02-14T06:54:35;1.63;;;1.10;;
19285;SDS011;9776;50.798;6.430;2024-02-14T06:57:02;2.20;;;1.00;;
19285;SDS011;9776;50.798;6.430;2024-02-14T06:59:31;1.33;;;1.00;;
19285;SDS011;9776;50.798;6.430;2024-02-14T07:01:58;0.90;;;0.88;;
19285;SDS011;9776;50.798;6.430;2024-02-14T07:04:26;2.03;;;0.80;;
19285;SDS011;9776;50.798;6.430;2024-02-14T07:06:53;2.55;;;1.10;;
19285;SDS011;9776;50.798;6.430;2024-02-14T07:09:20;1.75;;;1.00;;
19285;SDS011;9776;50.798;6.430;2024-02-14T07:11:47;1.60;;;0.88;;
19285;SDS011;9776;50.798;6.430;2024-02-14T07:14:18;4.18;;;0.82;;
19285;SDS011;9776;50.798;6.430;2024-02-14T07:16:47;2.17;;;1.20;;
19285;SDS011;9776;50.798;6.430;2024-02-14T07:19:16;2.10;;;0.70;;
19285;SDS011;9776;50.798;6.430;2024-02-14T07:21:43;2.63;;;0.93;;
19285;SDS011;9776;50.798;6.430;2024-02-14T07:24:11;2.42;;;0.90;;
19285;SDS011;9776;50.798;6.430;2024-02-14T07:26:38;3.90;;;0.85;;
19285;SDS011;9776;50.798;6.430;2024-02-14T07:29:08;1.35;;;0.80;;
19285;SDS011;9776;50.798;6.430;2024-02-14T07:31:35;1.98;;;0.80;;
19285;SDS011;9776;50.798;6.430;2024-02-14T07:34:03;1.85;;;1.00;;
19285;SDS011;9776;50.798;6.430;2024-02-14T07:36:31;1.00;;;0.80;;
19285;SDS011;9776;50.798;6.430;2024-02-14T07:38:59;1.92;;;0.70;;
19285;SDS011;9776;50.798;6.430;2024-02-14T07:41:25;2.67;;;0.80;;
19285;SDS011;9776;50.798;6.430;2024-02-14T07:43:52;1.73;;;0.95;;
19285;SDS011;9776;50.798;6.430;2024-02-14T07:46:21;2.10;;;0.85;;
19285;SDS011;9776;50.798;6.430;2024-02-14T07:48:52;1.50;;;0.75;;
19285;SDS011;9776;50.798;6.430;2024-02-14T07:51:21;0.80;;;0.80;;
19285;SDS011;9776;50.798;6.430;2024-02-14T07:53:51;1.30;;;0.90;;
19285;SDS011;9776;50.798;6.430;2024-02-14T07:56:20;2.25;;;1.27;;
19285;SDS011;9776;50.798;6.430;2024-02-14T07:58:48;2.65;;;0.93;;
19285;SDS011;9776;50.798;6.430;2024-02-14T08:01:16;2.33;;;0.80;;
19285;SDS011;9776;50.798;6.430;2024-02-14T08:03:46;2.83;;;1.00;;
19285;SDS011;9776;50.798;6.430;2024-02-14T08:06:13;3.13;;;1.00;;
19285;SDS011;9776;50.798;6.430;2024-02-14T08:08:42;4.03;;;1.60;;
19285;SDS011;9776;50.798;6.430;2024-02-14T08:11:11;6.07;;;2.35;;
19285;SDS011;9776;50.798;6.430;2024-02-14T08:13:40;2.60;;;1.40;;
19285;SDS011;9776;50.798;6.430;2024-02-14T08:16:09;1.45;;;0.70;;
19285;SDS011;9776;50.798;6.430;2024-02-14T08:18:36;1.02;;;0.68;;
19285;SDS011;9776;50.798;6.430;2024-02-14T08:21:04;1.33;;;0.60;;
19285;SDS011;9776;50.798;6.430;2024-02-14T08:23:32;2.40;;;0.75;;
19285;SDS011;9776;50.798;6.430;2024-02-14T08:26:02;1.83;;;0.80;;
19285;SDS011;9776;50.798;6.430;2024-02-14T08:28:35;2.05;;;0.70;;
19285;SDS011;9776;50.798;6.430;2024-02-14T08:31:03;1.35;;;0.63;;
19285;SDS011;9776;50.798;6.430;2024-02-14T08:33:36;1.65;;;0.52;;
19285;SDS011;9776;50.798;6.430;2024-02-14T08:36:04;1.70;;;0.80;;
19285;SDS011;9776;50.798;6.430;2024-02-14T08:38:32;1.40;;;0.60;;
19285;SDS011;9776;50.798;6.430;2024-02-14T08:40:59;2.03;;;0.68;;
19285;SDS011;9776;50.798;6.430;2024-02-14T08:43:31;1.63;;;0.70;;
19285;SDS011;9776;50.798;6.430;2024-02-14T08:45:58;3.58;;;0.88;;
19285;SDS011;9776;50.798;6.430;2024-02-14T08:48:30;1.27;;;0.73;;
19285;SDS011;9776;50.798;6.430;2024-02-14T08:51:02;3.17;;;0.95;;
19285;SDS011;9776;50.798;6.430;2024-02-14T08:53:31;2.92;;;0.80;;
19285;SDS011;9776;50.798;6.430;2024-02-14T08:55:58;3.55;;;1.10;;
19285;SDS011;9776;50.798;6.430;2024-02-14T08:58:27;1.63;;;0.80;;
19285;SDS011;9776;50.798;6.430;2024-02-14T09:00:58;1.13;;;0.70;;
19285;SDS011;9776;50.798;6.430;2024-02-14T09:03:27;1.88;;;0.73;;
19285;SDS011;9776;50.798;6.430;2024-02-14T09:05:56;3.08;;;0.80;;
19285;SDS011;9776;50.798;6.430;2024-02-14T09:08:23;2.33;;;0.90;;
19285;SDS011;9776;50.798;6.430;2024-02-14T09:10:50;2.80;;;0.80;;
19285;SDS011;9776;50.798;6.430;2024-02-14T09:13:17;2.45;;;0.70;;
19285;SDS011;9776;50.798;6.430;2024-02-14T09:15:46;3.03;;;0.90;;
19285;SDS011;9776;50.798;6.430;2024-02-14T09:18:15;2.95;;;0.60;;
19285;SDS011;9776;50.798;6.430;2024-02-14T09:20:44;2.25;;;0.70;;
19285;SDS011;9776;50.798;6.430;2024-02-14T09:23:12;1.70;;;0.70;;
19285;SDS011;9776;50.798;6.430;2024-02-14T09:25:44;5.38;;;0.85;;
19285;SDS011;9776;50.798;6.430;2024-02-14T09:28:12;3.90;;;0.80;;
19285;SDS011;9776;50.798;6.430;2024-02-14T09:30:39;2.10;;;0.93;;
19285;SDS011;9776;50.798;6.430;2024-02-14T09:33:08;1.38;;;0.80;;
19285;SDS011;9776;50.798;6.430;2024-02-14T09:35:38;2.03;;;0.60;;
19285;SDS011;9776;50.798;6.430;2024-02-14T09:38:09;1.05;;;0.80;;
19285;SDS011;9776;50.798;6.430;2024-02-14T09:40:38;3.92;;;0.93;;
19285;SDS011;9776;50.798;6.430;2024-02-14T09:43:07;3.50;;;0.73;;
19285;SDS011;9776;50.798;6.430;2024-02-14T09:45:55;2.08;;;1.05;;
19285;SDS011;9776;50.798;6.430;2024-02-14T09:48:24;3.55;;;0.80;;
19285;SDS011;9776;50.798;6.430;2024-02-14T09:50:54;2.20;;;1.00;;
19285;SDS011;9776;50.798;6.430;2024-02-14T09:53:23;2.92;;;0.52;;
19285;SDS011;9776;50.798;6.430;2024-02-14T09:55:50;2.50;;;0.63;;
19285;SDS011;9776;50.798;6.430;2024-02-14T09:58:17;1.95;;;0.60;;
19285;SDS011;9776;50.798;6.430;2024-02-14T10:00:44;6.45;;;0.80;;
19285;SDS011;9776;50.798;6.430;2024-02-14T10:03:12;2.35;;;0.93;;
19285;SDS011;9776;50.798;6.430;2024-02-14T10:05:42;1.77;;;0.80;;
19285;SDS011;9776;50.798;6.430;2024-02-14T10:08:09;3.30;;;0.60;;
19285;SDS011;9776;50.798;6.430;2024-02-14T10:10:37;3.10;;;0.77;;
19285;SDS011;9776;50.798;6.430;2024-02-14T10:13:04;2.25;;;0.85;;
19285;SDS011;9776;50.798;6.430;2024-02-14T10:15:32;6.88;;;3.42;;
19285;SDS011;9776;50.798;6.430;2024-02-14T10:18:00;2.78;;;1.10;;
19285;SDS011;9776;50.798;6.430;2024-02-14T10:20:28;1.67;;;1.02;;
19285;SDS011;9776;50.798;6.430;2024-02-14T10:23:03;1.45;;;0.60;;
19285;SDS011;9776;50.798;6.430;2024-02-14T10:25:34;1.77;;;0.65;;
19285;SDS011;9776;50.798;6.430;2024-02-14T10:28:03;3.20;;;0.52;;
19285;SDS011;9776;50.798;6.430;2024-02-14T10:30:36;1.30;;;0.85;;
19285;SDS011;9776;50.798;6.430;2024-02-14T10:33:05;2.58;;;0.85;;
19285;SDS011;9776;50.798;6.430;2024-02-14T10:35:32;5.20;;;2.85;;
19285;SDS011;9776;50.798;6.430;2024-02-14T10:38:04;1.50;;;1.13;;
19285;SDS011;9776;50.798;6.430;2024-02-14T10:40:34;1.90;;;1.35;;
19285;SDS011;9776;50.798;6.430;2024-02-14T10:43:04;1.75;;;0.57;;
19285;SDS011;9776;50.798;6.430;2024-02-14T10:45:31;0.60;;;0.32;;
19285;SDS011;9776;50.798;6.430;2024-02-14T10:48:00;1.88;;;0.70;;
19285;SDS011;9776;50.798;6.430;2024-02-14T10:50:30;2.05;;;0.50;;
19285;SDS011;9776;50.798;6.430;2024-02-14T10:53:01;1.67;;;1.05;;
19285;SDS011;9776;50.798;6.430;2024-02-14T10:55:33;0.82;;;0.50;;
19285;SDS011;9776;50.798;6.430;2024-02-14T10:58:01;1.27;;;0.70;;
19285;SDS011;9776;50.798;6.430;2024-02-14T11:00:29;1.25;;;0.50;;
19285;SDS011;9776;50.798;6.430;2024-02-14T11:02:57;1.40;;;0.40;;
19285;SDS011;9776;50.798;6.430;2024-02-14T11:05:27;0.70;;;0.43;;
19285;SDS011;9776;50.798;6.430;2024-02-14T11:07:54;1.40;;;0.50;;
19285;SDS011;9776;50.798;6.430;2024-02-14T11:10:23;0.30;;;0.30;;
19285;SDS011;9776;50.798;6.430;2024-02-14T11:12:53;0.93;;;0.40;;
19285;SDS011;9776;50.798;6.430;2024-02-14T11:15:21;0.55;;;0.40;;
19285;SDS011;9776;50.798;6.430;2024-02-14T11:17:49;0.70;;;0.30;;
19285;SDS011;9776;50.798;6.430;2024-02-14T11:20:17;0.82;;;0.30;;
19285;SDS011;9776;50.798;6.430;2024-02-14T11:22:54;1.08;;;0.70;;
19285;SDS011;9776;50.798;6.430;2024-02-14T11:25:24;0.50;;;0.40;;
19285;SDS011;9776;50.798;6.430;2024-02-14T11:27:58;0.30;;;0.30;;
19285;SDS011;9776;50.798;6.430;2024-02-14T11:30:30;0.82;;;0.30;;
19285;SDS011;9776;50.798;6.430;2024-02-14T11:33:10;0.30;;;0.30;;
19285;SDS011;9776;50.798;6.430;2024-02-14T11:35:44;2.00;;;0.68;;
19285;SDS011;9776;50.798;6.430;2024-02-14T11:38:12;1.05;;;0.60;;
19285;SDS011;9776;50.798;6.430;2024-02-14T11:40:41;1.05;;;0.57;;
19285;SDS011;9776;50.798;6.430;2024-02-14T11:43:11;2.50;;;0.93;;
19285;SDS011;9776;50.798;6.430;2024-02-14T11:45:40;0.85;;;0.30;;
19285;SDS011;9776;50.798;6.430;2024-02-14T11:48:08;1.58;;;0.40;;
19285;SDS011;9776;50.798;6.430;2024-02-14T11:50:36;0.52;;;0.40;;
19285;SDS011;9776;50.798;6.430;2024-02-14T11:53:06;0.40;;;0.30;;
19285;SDS011;9776;50.798;6.430;2024-02-14T11:55:35;0.20;;;0.20;;
19285;SDS011;9776;50.798;6.430;2024-02-14T11:58:08;0.77;;;0.20;;
19285;SDS011;9776;50.798;6.430;2024-02-14T12:00:36;1.00;;;0.47;;
19285;SDS011;9776;50.798;6.430;2024-02-14T12:03:06;1.15;;;0.50;;
19285;SDS011;9776;50.798;6.430;2024-02-14T12:05:37;0.70;;;0.40;;
19285;SDS011;9776;50.798;6.430;2024-02-14T12:08:14;0.52;;;0.38;;
19285;SDS011;9776;50.798;6.430;2024-02-14T12:10:42;0.25;;;0.25;;
19285;SDS011;9776;50.798;6.430;2024-02-14T12:13:13;2.72;;;1.10;;
19285;SDS011;9776;50.798;6.430;2024-02-14T12:15:44;0.25;;;0.20;;
19285;SDS011;9776;50.798;6.430;2024-02-14T12:18:12;0.40;;;0.40;;
19285;SDS011;9776;50.798;6.430;2024-02-14T12:20:39;0.88;;;0.60;;
19285;SDS011;9776;50.798;6.430;2024-02-14T12:23:07;0.95;;;0.60;;
19285;SDS011;9776;50.798;6.430;2024-02-14T12:25:42;0.20;;;0.20;;
19285;SDS011;9776;50.798;6.430;2024-02-14T12:28:14;0.30;;;0.30;;
19285;SDS011;9776;50.798;6.430;2024-02-14T12:30:44;1.27;;;0.57;;
19285;SDS011;9776;50.798;6.430;2024-02-14T12:33:15;0.68;;;0.30;;
19285;SDS011;9776;50.798;6.430;2024-02-14T12:35:42;0.30;;;0.30;;
19285;SDS011;9776;50.798;6.430;2024-02-14T12:38:10;0.45;;;0.30;;
19285;SDS011;9776;50.798;6.430;2024-02-14T12:40:38;0.60;;;0.32;;
19285;SDS011;9776;50.798;6.430;2024-02-14T12:43:06;0.32;;;0.30;;
19285;SDS011;9776;50.798;6.430;2024-02-14T12:45:38;0.63;;;0.30;;
19285;SDS011;9776;50.798;6.430;2024-02-14T12:48:06;0.32;;;0.20;;
19285;SDS011;9776;50.798;6.430;2024-02-14T12:50:34;0.30;;;0.30;;
19285;SDS011;9776;50.798;6.430;2024-02-14T12:53:02;0.40;;;0.40;;
19285;SDS011;9776;50.798;6.430;2024-02-14T12:55:29;0.30;;;0.30;;
19285;SDS011;9776;50.798;6.430;2024-02-14T12:57:57;0.30;;;0.30;;
19285;SDS011;9776;50.798;6.430;2024-02-14T13:00:24;0.30;;;0.30;;
19285;SDS011;9776;50.798;6.430;2024-02-14T13:02:53;0.47;;;0.38;;
19285;SDS011;9776;50.798;6.430;2024-02-14T13:05:20;0.38;;;0.20;;
19285;SDS011;9776;50.798;6.430;2024-02-14T13:07:51;0.30;;;0.30;;
19285;SDS011;9776;50.798;6.430;2024-02-14T13:10:22;3.63;;;2.20;;
19285;SDS011;9776;50.798;6.430;2024-02-14T13:12:49;0.40;;;0.40;;
19285;SDS011;9776;50.798;6.430;2024-02-14T13:15:19;0.60;;;0.30;;
19285;SDS011;9776;50.798;6.430;2024-02-14T13:17:49;0.25;;;0.20;;
19285;SDS011;9776;50.798;6.430;2024-02-14T13:20:23;1.52;;;0.80;;
19285;SDS011;9776;50.798;6.430;2024-02-14T13:22:50;1.63;;;1.00;;
19285;SDS011;9776;50.798;6.430;2024-02-14T13:25:17;4.45;;;1.15;;
19285;SDS011;9776;50.798;6.430;2024-02-14T13:27:44;1.00;;;0.80;;
19285;SDS011;9776;50.798;6.430;2024-02-14T13:30:11;1.40;;;1.17;;
19285;SDS011;9776;50.798;6.430;2024-02-14T13:32:38;0.90;;;0.55;;
19285;SDS011;9776;50.798;6.430;2024-02-14T13:35:05;0.63;;;0.40;;
19285;SDS011;9776;50.798;6.430;2024-02-14T13:37:35;0.32;;;0.32;;
19285;SDS011;9776;50.798;6.430;2024-02-14T13:40:03;0.30;;;0.30;;
19285;SDS011;9776;50.798;6.430;2024-02-14T13:42:35;0.20;;;0.20;;
19285;SDS011;9776;50.798;6.430;2024-02-14T13:45:03;1.05;;;0.43;;
19285;SDS011;9776;50.798;6.430;2024-02-14T13:47:31;1.35;;;0.98;;
19285;SDS011;9776;50.798;6.430;2024-02-14T13:49:58;1.80;;;1.02;;
19285;SDS011;9776;50.798;6.430;2024-02-14T13:52:28;0.68;;;0.68;;
19285;SDS011;9776;50.798;6.430;2024-02-14T13:55:06;1.30;;;0.70;;
19285;SDS011;9776;50.798;6.430;2024-02-14T13:57:38;2.05;;;0.68;;
19285;SDS011;9776;50.798;6.430;2024-02-14T14:00:07;0.60;;;0.40;;
19285;SDS011;9776;50.798;6.430;2024-02-14T14:02:36;1.10;;;0.50;;
19285;SDS011;9776;50.798;6.430;2024-02-14T14:05:06;1.02;;;0.80;;
19285;SDS011;9776;50.798;6.430;2024-02-14T14:07:34;3.15;;;0.68;;
19285;SDS011;9776;50.798;6.430;2024-02-14T14:10:01;0.77;;;0.50;;
19285;SDS011;9776;50.798;6.430;2024-02-14T14:12:30;1.60;;;1.10;;
19285;SDS011;9776;50.798;6.430;2024-02-14T14:14:57;2.22;;;1.30;;
19285;SDS011;9776;50.798;6.430;2024-02-14T14:17:24;0.95;;;0.70;;
19285;SDS011;9776;50.798;6.430;2024-02-14T14:19:52;0.70;;;0.70;;
19285;SDS011;9776;50.798;6.430;2024-02-14T14:22:20;1.00;;;0.85;;
19285;SDS011;9776;50.798;6.430;2024-02-14T14:24:48;1.75;;;1.40;;
19285;SDS011;9776;50.798;6.430;2024-02-14T14:27:18;0.98;;;0.50;;
19285;SDS011;9776;50.798;6.430;2024-02-14T14:29:49;0.40;;;0.40;;
19285;SDS011;9776;50.798;6.430;2024-02-14T14:32:19;1.15;;;0.40;;
19285;SDS011;9776;50.798;6.430;2024-02-14T14:34:45;1.23;;;0.70;;
19285;SDS011;9776;50.798;6.430;2024-02-14T14:37:13;0.40;;;0.40;;
19285;SDS011;9776;50.798;6.430;2024-02-14T14:39:42;0.73;;;0.52;;
19285;SDS011;9776;50.798;6.430;2024-02-14T14:42:10;0.65;;;0.57;;
19285;SDS011;9776;50.798;6.430;2024-02-14T14:44:37;0.30;;;0.30;;
19285;SDS011;9776;50.798;6.430;2024-02-14T14:47:06;0.50;;;0.30;;
19285;SDS011;9776;50.798;6.430;2024-02-14T14:49:33;2.53;;;0.50;;
19285;SDS011;9776;50.798;6.430;2024-02-14T14:52:03;1.25;;;0.70;;
19285;SDS011;9776;50.798;6.430;2024-02-14T14:54:30;0.52;;;0.50;;
19285;SDS011;9776;50.798;6.430;2024-02-14T14:56:57;0.45;;;0.43;;
19285;SDS011;9776;50.798;6.430;2024-02-14T14:59:28;2.50;;;1.00;;
19285;SDS011;9776;50.798;6.430;2024-02-14T15:01:55;0.88;;;0.50;;
19285;SDS011;9776;50.798;6.430;2024-02-14T15:04:24;0.85;;;0.55;;
19285;SDS011;9776;50.798;6.430;2024-02-14T15:06:51;0.47;;;0.40;;